Florinea, Brazil
Current Conditions -  °F | °C
As of 11:00 PM on Friday 24 Oct 2014 (Local Time) from SBLO Reporting Station
Clear Clear  
Wind Chill: 77°   Ceiling: Unl
Heat Index: 79°   Visibility: 6mi
Dew Point: 66°   Wind: 5mph
Humidity: 69%   Direction: 260°W
Pressure: 29.94"   Gusts: NA
Location:  22.9°S, 50.73°W
Report Text: SBLO 250100Z 26004KT CAVOK 25/19 Q1014
Loading
Personal Weather Stations






























Interactive Weather Map New forecast layout! Learn more

10-Day Weather Forecast

Advertisements
Track Severe Weather on mobile